Portada
METAR-TAF:

METAR-TAF

Aeropuertos :

Galesburg Municipal Airport

Galesburg, Illinois, Estados Unidos

latitud: 40-56-17N, longitud: 090-25-52W, altitud: 233 m

Observación

El informe se hizo hace 25 minutos, a las 01:15 UTC
Viento 20 kt del oeste-noroeste con ráfagas de 26 kt
Temperatura 11°C
Humedad 54%
Presión 1016 hPa
Visibilidad: 16.1 km
Cielo nuboso a una altura de 4200 ft
Cielo cubierto a una altura de 5000 ft

METAR: KGBG 300115Z AUTO 29020G26KT 10SM BKN042 OVC050 11/02 A3000 RMK AO2 T01110024

Hora: 20:40 (01:40 UTC)


TAF: falta

Observaciones y pronósticos meteorológicos de más de 4000 aeropuertos (mensajes METAR y TAF).

Los puntos amarillos y rojos representan las estaciones disponibles.

Ponga el ratón en el punto deseado para ver el nombre de la estación.

Haga clic para ver las observaciones y los pronósticos meteorológicos.

Para cambiar el mapa : haga clic en los botones verdes con una cruz de color negro para hacer un zoom, en el botón verde con un guión para alejar o en las flechas verdes para mapas adyacentes.


METAR-TAF: